createdAt,value
2023-02-01T00:03:39.392Z,11.40
2023-02-01T00:08:41.952Z,11.20
2023-02-01T00:13:44.543Z,10.10
2023-02-01T00:18:49.146Z,10.90
2023-02-01T00:23:51.632Z,10.40
2023-02-01T00:28:54.671Z,10.70
2023-02-01T00:33:57.206Z,10.60
2023-02-01T00:38:59.725Z,9.50
2023-02-01T00:44:02.711Z,10.60
2023-02-01T00:49:08.307Z,10.50
2023-02-01T00:54:10.788Z,10.50
2023-02-01T00:59:13.670Z,11.00
2023-02-01T01:04:16.198Z,10.90
2023-02-01T01:09:18.748Z,10.50
2023-02-01T01:14:21.272Z,11.10
2023-02-01T01:19:23.821Z,11.90
2023-02-01T01:24:26.356Z,11.60
2023-02-01T01:29:28.878Z,11.70
2023-02-01T01:34:31.351Z,11.60
2023-02-01T01:39:33.831Z,11.90
2023-02-01T01:45:05.876Z,12.00
2023-02-01T01:50:14.083Z,11.10
2023-02-01T01:55:19.336Z,11.60
2023-02-01T02:00:22.540Z,11.80
2023-02-01T02:05:30.241Z,11.90
2023-02-01T02:10:51.555Z,11.50
2023-02-01T02:16:24.553Z,11.00
2023-02-01T02:22:00.890Z,11.80
2023-02-01T02:27:25.549Z,11.90
2023-02-01T02:33:04.341Z,11.60
2023-02-01T02:38:29.060Z,11.90
2023-02-01T02:44:05.761Z,11.80
2023-02-01T02:49:21.960Z,11.50
2023-02-01T02:54:47.593Z,12.40
2023-02-01T03:00:10.862Z,12.20
2023-02-01T03:05:14.028Z,11.90
2023-02-01T03:10:30.420Z,11.60
2023-02-01T03:15:57.116Z,11.50
2023-02-01T03:21:04.639Z,11.70
2023-02-01T03:26:12.462Z,11.90
2023-02-01T03:31:15.304Z,12.00
2023-02-01T03:36:18.226Z,11.90
2023-02-01T03:41:49.870Z,12.10
2023-02-01T03:47:23.112Z,12.40
2023-02-01T03:52:44.118Z,11.70
2023-02-01T03:58:07.287Z,11.70
2023-02-01T04:03:11.026Z,12.40
2023-02-01T04:08:13.617Z,12.80
2023-02-01T04:13:16.189Z,12.20
2023-02-01T04:18:18.748Z,12.30
2023-02-01T04:23:21.709Z,12.90
2023-02-01T04:28:24.254Z,12.20
2023-02-01T04:33:26.773Z,12.40
2023-02-01T04:38:30.470Z,12.10
2023-02-01T04:43:32.938Z,12.10
2023-02-01T04:48:35.350Z,12.00
2023-02-01T04:53:38.277Z,12.10
2023-02-01T04:58:40.725Z,12.10
2023-02-01T05:03:43.281Z,12.60
2023-02-01T05:08:45.805Z,12.60
2023-02-01T05:13:51.212Z,12.50
2023-02-01T05:18:54.415Z,12.20
2023-02-01T05:24:13.820Z,12.20
2023-02-01T05:29:17.985Z,12.50
2023-02-01T05:34:20.621Z,12.60
2023-02-01T05:39:23.084Z,12.50
2023-02-01T05:44:25.563Z,12.70
2023-02-01T05:49:28.120Z,12.40
2023-02-01T05:54:30.821Z,12.80
2023-02-01T05:59:33.225Z,12.30
2023-02-01T06:04:35.799Z,12.40
2023-02-01T06:09:38.464Z,12.70
2023-02-01T06:14:41.139Z,12.60
2023-02-01T06:19:45.060Z,12.50
2023-02-01T06:24:47.576Z,12.40
2023-02-01T06:29:50.079Z,12.40
2023-02-01T06:34:56.850Z,12.60
2023-02-01T06:39:59.691Z,12.50
2023-02-01T06:45:02.327Z,12.80
2023-02-01T06:50:05.246Z,12.80
2023-02-01T06:55:08.064Z,12.50
2023-02-01T07:00:11.210Z,12.60
2023-02-01T07:05:13.805Z,13.00
2023-02-01T07:10:16.616Z,13.00
2023-02-01T07:15:19.237Z,12.80
2023-02-01T07:20:22.462Z,12.90
2023-02-01T07:25:25.906Z,12.60
2023-02-01T07:30:28.536Z,12.80
2023-02-01T07:35:31.407Z,13.10
2023-02-01T07:40:34.064Z,13.30
2023-02-01T07:45:37.513Z,13.50
2023-02-01T07:50:39.984Z,13.20
2023-02-01T07:55:42.812Z,13.60
2023-02-01T08:01:03.797Z,13.50
2023-02-01T08:06:07.961Z,13.50
2023-02-01T08:11:10.529Z,13.30
2023-02-01T08:16:14.632Z,13.40
2023-02-01T08:21:23.069Z,13.40
2023-02-01T08:26:26.951Z,13.10
2023-02-01T08:31:30.780Z,13.50
2023-02-01T08:36:34.119Z,13.50
2023-02-01T08:41:38.099Z,13.10
2023-02-01T08:46:40.564Z,13.20
2023-02-01T08:51:43.016Z,13.20
2023-02-01T08:56:45.881Z,13.20
2023-02-01T09:01:48.402Z,13.10
2023-02-01T09:06:50.849Z,13.30
2023-02-01T09:11:53.345Z,13.40
2023-02-01T09:16:56.024Z,13.20
2023-02-01T09:21:59.272Z,13.40
2023-02-01T09:27:01.705Z,13.50
2023-02-01T09:32:04.917Z,13.20
2023-02-01T09:37:07.620Z,13.00
2023-02-01T09:43:04.513Z,13.30
2023-02-01T09:48:15.711Z,13.50
2023-02-01T09:53:41.245Z,13.40
2023-02-01T09:58:48.704Z,13.50
2023-02-01T10:03:58.021Z,13.40
2023-02-01T10:09:18.199Z,13.50
2023-02-01T10:14:32.296Z,13.10
2023-02-01T10:20:05.651Z,13.20
2023-02-01T10:25:14.159Z,12.80
2023-02-01T10:30:22.169Z,12.90
2023-02-01T10:35:37.520Z,13.10
2023-02-01T10:40:40.563Z,12.60
2023-02-01T10:45:43.935Z,12.70
2023-02-01T10:50:57.410Z,12.80
2023-02-01T10:56:08.331Z,13.00
2023-02-01T11:01:18.346Z,12.90
2023-02-01T11:06:34.580Z,13.30
2023-02-01T11:11:54.175Z,13.00
2023-02-01T11:17:01.016Z,13.10
2023-02-01T11:22:05.393Z,13.00
2023-02-01T11:27:25.584Z,13.10
2023-02-01T11:32:29.659Z,13.20
2023-02-01T11:37:38.152Z,12.90
2023-02-01T11:42:56.747Z,13.00
2023-02-01T11:47:59.732Z,12.50
2023-02-01T11:53:08.237Z,12.60
2023-02-01T11:58:10.652Z,13.20
2023-02-01T12:03:37.834Z,13.10
2023-02-01T12:09:16.475Z,12.80
2023-02-01T12:14:48.300Z,12.80
2023-02-01T12:19:55.481Z,13.20
2023-02-01T12:25:18.955Z,13.10
2023-02-01T12:30:39.481Z,13.00
2023-02-01T12:35:56.985Z,12.90
2023-02-01T12:41:23.873Z,12.70
2023-02-01T12:46:34.527Z,12.60
2023-02-01T12:51:40.308Z,12.80
2023-02-01T12:56:50.775Z,12.90
2023-02-01T13:02:18.131Z,12.80
2023-02-01T13:07:26.759Z,12.30
2023-02-01T13:12:57.761Z,12.90
2023-02-01T13:18:05.973Z,13.30
2023-02-01T13:23:28.763Z,13.10
2023-02-01T13:29:04.349Z,13.30
2023-02-01T13:34:43.675Z,13.40
2023-02-01T13:40:07.903Z,12.90
2023-02-01T13:45:26.645Z,13.10
2023-02-01T13:50:41.968Z,12.80
2023-02-01T13:55:55.823Z,12.80
2023-02-01T14:01:30.966Z,12.60
2023-02-01T14:06:36.414Z,12.70
2023-02-01T14:11:51.294Z,12.90
2023-02-01T14:16:53.808Z,12.90
2023-02-01T14:22:01.718Z,12.80
2023-02-01T14:27:19.538Z,12.60
2023-02-01T14:32:34.885Z,12.60
2023-02-01T14:37:39.991Z,12.60
2023-02-01T14:42:48.585Z,12.90
2023-02-01T14:48:07.165Z,13.00
2023-02-01T14:53:09.890Z,12.80
2023-02-01T14:58:35.688Z,12.40
2023-02-01T15:03:59.932Z,12.60
2023-02-01T15:09:19.826Z,12.50
2023-02-01T15:14:22.305Z,12.30
2023-02-01T15:19:30.023Z,12.40
2023-02-01T15:24:32.604Z,12.50
2023-02-01T15:29:35.637Z,12.40
2023-02-01T15:34:49.264Z,12.00
2023-02-01T15:40:10.367Z,12.50
2023-02-01T15:45:20.854Z,12.30
2023-02-01T15:50:26.106Z,12.50
2023-02-01T15:55:43.231Z,12.30
2023-02-01T16:00:52.256Z,12.30
2023-02-01T16:06:00.838Z,12.60
2023-02-01T16:11:26.364Z,12.60
2023-02-01T16:16:30.457Z,13.00
2023-02-01T16:21:33.008Z,13.40
2023-02-01T16:26:35.808Z,12.90
2023-02-01T16:31:40.469Z,13.10
2023-02-01T16:36:43.184Z,13.00
2023-02-01T16:41:48.781Z,12.40
2023-02-01T16:46:51.341Z,12.70
2023-02-01T16:51:58.718Z,12.70
2023-02-01T16:57:01.295Z,12.50
2023-02-01T17:02:04.049Z,12.10
2023-02-01T17:07:10.377Z,12.40
2023-02-01T17:12:27.600Z,12.20
2023-02-01T17:17:38.797Z,12.20
2023-02-01T17:22:41.571Z,12.30
2023-02-01T17:27:45.589Z,12.60
2023-02-01T17:32:48.299Z,12.90
2023-02-01T17:37:52.108Z,13.00
2023-02-01T17:42:57.895Z,12.60
2023-02-01T17:48:00.537Z,13.00
2023-02-01T17:53:03.662Z,12.40
2023-02-01T17:58:07.475Z,12.30
2023-02-01T18:03:22.953Z,12.50
2023-02-01T18:08:27.751Z,11.70
2023-02-01T18:13:32.921Z,11.50
2023-02-01T18:18:37.385Z,11.80
2023-02-01T18:23:40.636Z,12.40
2023-02-01T18:28:43.811Z,11.90
2023-02-01T18:33:46.347Z,12.00
2023-02-01T18:38:49.491Z,12.30
2023-02-01T18:43:53.010Z,12.10
2023-02-01T18:48:55.647Z,12.10
2023-02-01T18:53:58.164Z,11.90
2023-02-01T18:59:00.604Z,12.00
2023-02-01T19:04:04.712Z,11.90
2023-02-01T19:09:17.657Z,12.00
2023-02-01T19:14:20.270Z,12.00
2023-02-01T19:19:22.871Z,11.70
2023-02-01T19:24:28.048Z,11.20
2023-02-01T19:29:31.214Z,11.40
2023-02-01T19:34:34.078Z,11.60
2023-02-01T19:39:41.876Z,11.80
2023-02-01T19:44:44.448Z,12.20
2023-02-01T19:49:46.996Z,12.30
2023-02-01T19:54:49.612Z,12.60
2023-02-01T19:59:52.299Z,12.40
2023-02-01T20:04:54.103Z,12.60
2023-02-01T20:09:56.919Z,12.20
2023-02-01T20:15:00.008Z,11.20
2023-02-01T20:20:04.633Z,11.40
2023-02-01T20:25:11.708Z,11.50
2023-02-01T20:30:19.990Z,11.00
2023-02-01T20:35:23.355Z,11.10
2023-02-01T20:40:26.764Z,10.70
2023-02-01T20:45:29.928Z,11.40
2023-02-01T20:50:33.164Z,11.90
2023-02-01T20:55:36.145Z,11.70
2023-02-01T21:00:39.131Z,11.60
2023-02-01T21:05:49.910Z,11.70
2023-02-01T21:10:57.116Z,11.60
2023-02-01T21:15:59.953Z,11.30
2023-02-01T21:21:12.718Z,11.80
2023-02-01T21:26:23.419Z,12.00
2023-02-01T21:31:26.134Z,12.40
2023-02-01T21:36:32.043Z,12.50
2023-02-01T21:41:54.725Z,12.50
2023-02-01T21:46:57.274Z,12.50
2023-02-01T21:52:00.016Z,12.10
2023-02-01T21:57:03.221Z,12.30
2023-02-01T22:02:06.312Z,12.80
2023-02-01T22:07:09.794Z,12.30
2023-02-01T22:12:13.831Z,11.90
2023-02-01T22:17:16.301Z,11.70
2023-02-01T22:22:18.785Z,12.50
2023-02-01T22:27:21.288Z,12.70
2023-02-01T22:32:35.703Z,12.50
2023-02-01T22:37:38.113Z,12.20
2023-02-01T22:42:40.724Z,12.60
2023-02-01T22:47:43.220Z,12.70
2023-02-01T22:52:45.697Z,12.20
2023-02-01T22:57:48.192Z,12.40
2023-02-01T23:02:51.867Z,12.00
2023-02-01T23:07:54.353Z,12.20
2023-02-01T23:12:56.853Z,12.30
2023-02-01T23:17:59.461Z,12.00
2023-02-01T23:23:02.018Z,12.20
2023-02-01T23:28:04.696Z,12.40
2023-02-01T23:33:07.238Z,12.80
2023-02-01T23:38:09.776Z,12.60
2023-02-01T23:43:30.659Z,12.40
2023-02-01T23:48:33.150Z,12.10
2023-02-01T23:53:35.942Z,12.80
2023-02-01T23:58:38.622Z,12.50
